Time,TemperatureF,DewpointF,PressureIn,WindDirection,WindDirectionDegrees,WindSpeedMPH,WindSpeedGustMPH,Humidity,HourlyPrecipIn,Conditions,Clouds,dailyrainin,SoftwareType,DateUTC
2013-08-06 00:01:00,67.4,63.2,29.86,SSE,160,0.0,0.0,86,0.00,,---,0.00,VWS V14.01,2013-08-06 05:01:00,
2013-08-06 00:06:00,67.1,62.9,29.86,SSE,159,0.0,0.0,86,0.00,,---,0.00,VWS V14.01,2013-08-06 05:06:00,
2013-08-06 00:11:00,67.0,63.2,29.86,South,179,0.0,0.0,87,0.00,,---,0.00,VWS V14.01,2013-08-06 05:11:00,
2013-08-06 00:16:00,66.9,63.0,29.85,SSW,200,0.0,0.0,87,0.00,,---,0.00,VWS V14.01,2013-08-06 05:16:00,
2013-08-06 00:21:00,67.0,63.5,29.85,SSW,204,0.0,0.0,88,0.00,,---,0.00,VWS V14.01,2013-08-06 05:21:00,
2013-08-06 00:26:00,66.9,63.3,29.86,SSW,206,0.0,0.0,88,0.00,,---,0.00,VWS V14.01,2013-08-06 05:26:00,
2013-08-06 00:31:00,66.8,63.2,29.86,SSW,206,0.0,0.0,88,0.00,,---,0.00,VWS V14.01,2013-08-06 05:31:00,
2013-08-06 00:36:00,66.7,63.2,29.86,SSW,204,0.0,0.0,88,0.00,,---,0.00,VWS V14.01,2013-08-06 05:36:00,
2013-08-06 00:41:00,66.7,63.2,29.86,SSW,208,0.0,0.0,88,0.00,,---,0.00,VWS V14.01,2013-08-06 05:41:00,
2013-08-06 00:46:00,66.7,63.2,29.86,SSW,205,0.0,0.0,88,0.00,,---,0.00,VWS V14.01,2013-08-06 05:46:00,
2013-08-06 00:51:00,66.8,63.2,29.86,SSW,203,1.8,3.6,88,0.00,,---,0.00,VWS V14.01,2013-08-06 05:51:00,
2013-08-06 00:56:00,66.8,63.2,29.87,SSW,205,0.0,0.0,88,0.00,,---,0.00,VWS V14.01,2013-08-06 05:56:00,
2013-08-06 01:01:00,66.8,63.2,29.87,SSW,201,0.0,0.0,88,0.00,,---,0.00,VWS V14.01,2013-08-06 06:01:00,
2013-08-06 01:06:00,66.8,63.2,29.87,SSW,201,0.0,0.0,88,0.00,,---,0.00,VWS V14.01,2013-08-06 06:06:00,
2013-08-06 01:11:00,66.9,63.7,29.87,SSW,208,0.0,0.0,89,0.00,,---,0.00,VWS V14.01,2013-08-06 06:11:00,
2013-08-06 01:16:00,66.9,63.7,29.88,SW,229,0.0,0.0,89,0.00,,---,0.00,VWS V14.01,2013-08-06 06:16:00,
2013-08-06 01:21:00,66.9,63.7,29.87,SW,228,3.6,3.6,89,0.00,,---,0.00,VWS V14.01,2013-08-06 06:21:00,
2013-08-06 01:26:00,67.1,63.8,29.87,SSW,201,1.8,3.6,89,0.00,,---,0.00,VWS V14.01,2013-08-06 06:26:00,
2013-08-06 01:31:00,67.2,63.9,29.88,South,182,1.8,7.2,89,0.00,,---,0.00,VWS V14.01,2013-08-06 06:31:00,
2013-08-06 01:36:00,67.3,64.0,29.87,South,180,1.8,3.6,89,0.00,,---,0.00,VWS V14.01,2013-08-06 06:36:00,
2013-08-06 01:41:00,67.4,64.1,29.87,South,173,7.2,9.0,89,0.00,,---,0.00,VWS V14.01,2013-08-06 06:41:00,
2013-08-06 01:46:00,67.5,63.9,29.87,SW,225,0.0,1.8,88,0.00,,---,0.00,VWS V14.01,2013-08-06 06:46:00,
2013-08-06 01:51:00,67.6,64.0,29.87,SSW,210,0.0,1.8,88,0.00,,---,0.00,VWS V14.01,2013-08-06 06:51:00,
2013-08-06 01:56:00,67.7,64.1,29.87,SW,226,0.0,0.0,88,0.00,,---,0.00,VWS V14.01,2013-08-06 06:56:00,
2013-08-06 02:01:00,67.7,64.1,29.86,SSW,203,0.0,0.0,88,0.00,,---,0.00,VWS V14.01,2013-08-06 07:01:00,
2013-08-06 02:06:00,67.7,64.1,29.86,SSW,193,1.8,1.8,88,0.00,,---,0.00,VWS V14.01,2013-08-06 07:06:00,
2013-08-06 02:11:00,67.6,64.0,29.86,SW,224,0.0,0.0,88,0.00,,---,0.00,VWS V14.01,2013-08-06 07:11:00,
2013-08-06 02:16:00,67.6,64.0,29.85,WSW,256,0.0,0.0,88,0.00,,---,0.00,VWS V14.01,2013-08-06 07:16:00,
2013-08-06 02:21:00,67.5,63.9,29.86,WSW,246,0.0,0.0,88,0.00,,---,0.00,VWS V14.01,2013-08-06 07:21:00,
2013-08-06 02:26:00,67.5,63.9,29.85,South,181,5.4,5.4,88,0.00,,---,0.00,VWS V14.01,2013-08-06 07:26:00,
2013-08-06 02:31:00,67.5,63.9,29.85,SW,236,0.0,0.0,88,0.00,,---,0.00,VWS V14.01,2013-08-06 07:31:00,
2013-08-06 02:36:00,67.4,63.8,29.85,South,184,1.8,1.8,88,0.00,,---,0.00,VWS V14.01,2013-08-06 07:36:00,
2013-08-06 02:41:00,67.3,63.7,29.85,WSW,252,0.0,0.0,88,0.00,,---,0.00,VWS V14.01,2013-08-06 07:41:00,
2013-08-06 02:46:00,67.3,63.7,29.85,West,260,1.8,1.8,88,0.00,,---,0.00,VWS V14.01,2013-08-06 07:46:00,
2013-08-06 02:51:00,67.1,63.8,29.85,SW,236,1.8,1.8,89,0.00,,---,0.00,VWS V14.01,2013-08-06 07:51:00,
2013-08-06 02:56:00,67.0,63.8,29.85,SW,221,1.8,1.8,89,0.00,,---,0.00,VWS V14.01,2013-08-06 07:56:00,
2013-08-06 03:01:00,66.9,63.7,29.84,SW,219,1.8,1.8,89,0.00,,---,0.00,VWS V14.01,2013-08-06 08:01:00,
2013-08-06 03:06:00,66.9,63.7,29.84,West,263,0.0,1.8,89,0.00,,---,0.00,VWS V14.01,2013-08-06 08:06:00,
2013-08-06 03:11:00,66.7,63.5,29.84,SSW,212,0.0,1.8,89,0.00,,---,0.00,VWS V14.01,2013-08-06 08:11:00,
2013-08-06 03:16:00,66.6,63.3,29.83,South,188,0.0,0.0,89,0.00,,---,0.00,VWS V14.01,2013-08-06 08:16:00,
2013-08-06 03:21:00,66.6,63.3,29.83,South,178,0.0,0.0,89,0.00,,---,0.00,VWS V14.01,2013-08-06 08:21:00,
2013-08-06 03:26:00,66.5,63.2,29.83,South,177,0.0,0.0,89,0.00,,---,0.00,VWS V14.01,2013-08-06 08:26:00,
2013-08-06 03:31:00,66.4,63.2,29.82,South,184,0.0,0.0,89,0.00,,---,0.00,VWS V14.01,2013-08-06 08:31:00,
2013-08-06 03:36:00,66.3,63.1,29.82,South,184,0.0,0.0,89,0.00,,---,0.00,VWS V14.01,2013-08-06 08:36:00,
2013-08-06 03:41:00,66.2,63.0,29.82,South,184,0.0,0.0,89,0.00,,---,0.00,VWS V14.01,2013-08-06 08:41:00,
2013-08-06 03:46:00,66.1,62.9,29.82,South,189,0.0,0.0,89,0.00,,---,0.00,VWS V14.01,2013-08-06 08:46:00,
2013-08-06 03:50:00,66.1,63.2,29.82,South,190,0.0,0.0,90,0.00,,---,0.00,VWS V14.01,2013-08-06 08:50:00,
2013-08-06 03:55:00,66.0,62.8,29.82,SE,146,0.0,0.0,89,0.00,,---,0.00,VWS V14.01,2013-08-06 08:55:00,
2013-08-06 04:00:00,65.8,62.9,29.81,SSE,147,0.0,0.0,90,0.00,,---,0.00,VWS V14.01,2013-08-06 09:00:00,
2013-08-06 04:05:00,65.7,62.5,29.82,SE,146,0.0,0.0,89,0.00,,---,0.00,VWS V14.01,2013-08-06 09:05:00,
2013-08-06 04:10:00,65.6,62.7,29.82,SE,146,0.0,0.0,90,0.00,,---,0.00,VWS V14.01,2013-08-06 09:10:00,
2013-08-06 04:15:00,65.6,62.7,29.82,SE,146,0.0,0.0,90,0.00,,---,0.00,VWS V14.01,2013-08-06 09:15:00,
2013-08-06 04:20:00,65.7,62.8,29.82,SE,146,0.0,0.0,90,0.00,,---,0.00,VWS V14.01,2013-08-06 09:20:00,
2013-08-06 04:25:00,65.9,63.0,29.82,SSE,156,0.0,1.8,90,0.00,,---,0.00,VWS V14.01,2013-08-06 09:25:00,
2013-08-06 04:30:00,66.1,63.2,29.82,SSW,198,0.0,1.8,90,0.00,,---,0.00,VWS V14.01,2013-08-06 09:30:00,
2013-08-06 04:35:00,66.2,63.2,29.81,SSE,160,0.0,5.4,90,0.00,,---,0.00,VWS V14.01,2013-08-06 09:35:00,
2013-08-06 04:40:00,66.3,63.3,29.81,SSW,200,1.8,1.8,90,0.00,,---,0.00,VWS V14.01,2013-08-06 09:40:00,
2013-08-06 04:45:00,66.4,63.5,29.82,SSW,195,0.0,1.8,90,0.00,,---,0.00,VWS V14.01,2013-08-06 09:45:00,
2013-08-06 04:50:00,66.5,63.5,29.82,SSW,194,0.0,0.0,90,0.00,,---,0.00,VWS V14.01,2013-08-06 09:50:00,
2013-08-06 04:55:00,66.5,63.5,29.82,SSW,194,0.0,0.0,90,0.00,,---,0.00,VWS V14.01,2013-08-06 09:55:00,
2013-08-06 05:00:00,66.6,63.7,29.82,South,183,3.6,3.6,90,0.00,,---,0.00,VWS V14.01,2013-08-06 10:00:00,
2013-08-06 05:05:00,66.7,63.8,29.83,SSW,193,0.0,3.6,90,0.00,,---,0.00,VWS V14.01,2013-08-06 10:05:00,
2013-08-06 05:10:00,66.7,63.8,29.83,SSE,166,1.8,1.8,90,0.00,,---,0.00,VWS V14.01,2013-08-06 10:10:00,
2013-08-06 05:15:00,66.8,63.8,29.83,SSW,193,1.8,5.4,90,0.00,,---,0.00,VWS V14.01,2013-08-06 10:15:00,
2013-08-06 05:20:00,66.8,63.8,29.83,SSW,198,1.8,3.6,90,0.00,,---,0.00,VWS V14.01,2013-08-06 10:20:00,
2013-08-06 05:25:00,66.8,63.8,29.83,SSW,198,1.8,5.4,90,0.00,,---,0.00,VWS V14.01,2013-08-06 10:25:00,
2013-08-06 05:30:00,66.8,63.8,29.84,South,190,1.8,5.4,90,0.00,,---,0.00,VWS V14.01,2013-08-06 10:30:00,
2013-08-06 05:35:00,66.8,63.8,29.83,South,189,0.0,1.8,90,0.00,,---,0.00,VWS V14.01,2013-08-06 10:35:00,
2013-08-06 05:40:00,66.8,63.8,29.83,SSW,205,0.0,3.6,90,0.00,,---,0.00,VWS V14.01,2013-08-06 10:40:00,
2013-08-06 05:45:00,66.8,63.8,29.84,SSW,199,3.6,3.6,90,0.00,,---,0.00,VWS V14.01,2013-08-06 10:45:00,
2013-08-06 05:50:00,66.8,63.8,29.84,South,184,0.0,5.4,90,0.00,,---,0.00,VWS V14.01,2013-08-06 10:50:00,
2013-08-06 05:55:00,66.8,63.8,29.84,SSW,193,3.6,3.6,90,0.00,,---,0.00,VWS V14.01,2013-08-06 10:55:00,
2013-08-06 06:00:00,66.8,63.8,29.84,South,186,0.0,3.6,90,0.00,,---,0.00,VWS V14.01,2013-08-06 11:00:00,
2013-08-06 06:05:00,66.9,63.9,29.85,SSW,211,0.0,0.0,90,0.00,,---,0.00,VWS V14.01,2013-08-06 11:05:00,
2013-08-06 06:10:00,66.9,63.9,29.85,SW,217,0.0,3.6,90,0.00,,---,0.00,VWS V14.01,2013-08-06 11:10:00,
2013-08-06 06:15:00,66.9,63.9,29.85,SSW,205,0.0,1.8,90,0.00,,---,0.00,VWS V14.01,2013-08-06 11:15:00,
2013-08-06 06:20:00,66.9,63.9,29.85,SSW,208,0.0,1.8,90,0.00,,---,0.00,VWS V14.01,2013-08-06 11:20:00,
2013-08-06 06:25:00,66.9,63.9,29.85,SSW,204,0.0,5.4,90,0.00,,---,0.00,VWS V14.01,2013-08-06 11:25:00,
2013-08-06 06:30:00,66.9,63.9,29.85,SSW,199,0.0,3.6,90,0.00,,---,0.00,VWS V14.01,2013-08-06 11:30:00,
2013-08-06 06:35:00,66.9,63.9,29.85,South,173,1.8,1.8,90,0.00,,---,0.00,VWS V14.01,2013-08-06 11:35:00,
2013-08-06 06:40:00,66.9,64.2,29.85,SW,221,0.0,5.4,91,0.00,,---,0.00,VWS V14.01,2013-08-06 11:40:00,
2013-08-06 06:45:00,66.9,64.2,29.85,South,177,1.8,5.4,91,0.00,,---,0.00,VWS V14.01,2013-08-06 11:45:00,
2013-08-06 06:50:00,67.0,64.3,29.85,SW,218,0.0,5.4,91,0.00,,---,0.00,VWS V14.01,2013-08-06 11:50:00,
2013-08-06 06:55:00,67.0,64.3,29.86,South,190,1.8,3.6,91,0.00,,---,0.00,VWS V14.01,2013-08-06 11:55:00,
2013-08-06 07:00:00,67.0,64.3,29.86,SSW,200,3.6,9.0,91,0.00,,---,0.00,VWS V14.01,2013-08-06 12:00:00,
2013-08-06 07:05:00,67.1,64.4,29.86,SSE,160,0.0,3.6,91,0.00,,---,0.00,VWS V14.01,2013-08-06 12:05:00,
2013-08-06 07:10:00,67.1,64.4,29.87,SSW,207,5.4,7.2,91,0.00,,---,0.00,VWS V14.01,2013-08-06 12:10:00,
2013-08-06 07:15:00,67.1,64.4,29.87,SE,129,3.6,7.2,91,0.00,,---,0.00,VWS V14.01,2013-08-06 12:15:00,
2013-08-06 07:20:00,67.2,64.5,29.87,SW,231,3.6,7.2,91,0.00,,---,0.00,VWS V14.01,2013-08-06 12:20:00,
2013-08-06 07:25:00,67.2,64.5,29.87,SSW,197,3.6,5.4,91,0.00,,---,0.00,VWS V14.01,2013-08-06 12:25:00,
2013-08-06 07:30:00,67.3,64.6,29.87,South,186,1.8,5.4,91,0.00,,---,0.00,VWS V14.01,2013-08-06 12:30:00,
2013-08-06 07:35:00,67.3,64.6,29.88,SSW,195,1.8,7.2,91,0.00,,---,0.00,VWS V14.01,2013-08-06 12:35:00,
2013-08-06 07:40:00,67.3,64.6,29.88,SSW,194,1.8,7.2,91,0.00,,---,0.00,VWS V14.01,2013-08-06 12:40:00,
2013-08-06 07:45:00,67.4,64.7,29.88,SSW,194,0.0,7.2,91,0.00,,---,0.00,VWS V14.01,2013-08-06 12:45:00,
2013-08-06 07:50:00,67.5,64.8,29.88,SW,214,0.0,7.2,91,0.00,,---,0.00,VWS V14.01,2013-08-06 12:50:00,
2013-08-06 07:55:00,67.6,64.9,29.88,South,184,3.6,5.4,91,0.00,,---,0.00,VWS V14.01,2013-08-06 12:55:00,
2013-08-06 08:00:00,67.7,65.0,29.88,ESE,117,0.0,1.8,91,0.00,,---,0.00,VWS V14.01,2013-08-06 13:00:00,
2013-08-06 08:05:00,67.7,65.0,29.88,South,191,5.4,7.2,91,0.00,,---,0.00,VWS V14.01,2013-08-06 13:05:00,
2013-08-06 08:10:00,67.7,65.0,29.88,South,188,1.8,7.2,91,0.00,,---,0.00,VWS V14.01,2013-08-06 13:10:00,
2013-08-06 08:15:00,67.8,65.1,29.88,SSW,210,3.6,9.0,91,0.00,,---,0.00,VWS V14.01,2013-08-06 13:15:00,
2013-08-06 08:20:00,67.9,65.2,29.88,SW,228,0.0,7.2,91,0.00,,---,0.00,VWS V14.01,2013-08-06 13:20:00,
2013-08-06 08:25:00,67.9,65.2,29.88,SSW,211,0.0,5.4,91,0.00,,---,0.00,VWS V14.01,2013-08-06 13:25:00,
2013-08-06 08:30:00,68.0,65.3,29.89,SE,139,1.8,5.4,91,0.00,,---,0.00,VWS V14.01,2013-08-06 13:30:00,
2013-08-06 08:35:00,68.0,65.3,29.89,SSW,211,0.0,5.4,91,0.00,,---,0.00,VWS V14.01,2013-08-06 13:35:00,
2013-08-06 08:40:00,68.0,65.3,29.89,West,276,0.0,0.0,91,0.00,,---,0.00,VWS V14.01,2013-08-06 13:40:00,
2013-08-06 08:45:00,68.1,65.4,29.88,SSE,161,3.6,5.4,91,0.00,,---,0.00,VWS V14.01,2013-08-06 13:45:00,
2013-08-06 08:50:00,68.1,65.4,29.89,West,274,0.0,5.4,91,0.00,,---,0.00,VWS V14.01,2013-08-06 13:50:00,
2013-08-06 08:55:00,68.2,65.5,29.89,SSW,198,0.0,9.0,91,0.00,,---,0.00,VWS V14.01,2013-08-06 13:55:00,
2013-08-06 09:00:00,68.3,65.6,29.89,SW,219,0.0,9.0,91,0.00,,---,0.00,VWS V14.01,2013-08-06 14:00:00,
2013-08-06 09:05:00,68.4,65.7,29.89,WSW,252,0.0,5.4,91,0.00,,---,0.00,VWS V14.01,2013-08-06 14:05:00,
2013-08-06 09:10:00,68.7,66.0,29.89,SSW,201,0.0,0.0,91,0.00,,---,0.00,VWS V14.01,2013-08-06 14:10:00,
2013-08-06 09:15:00,68.9,66.2,29.89,West,278,0.0,3.6,91,0.00,,---,0.00,VWS V14.01,2013-08-06 14:15:00,
2013-08-06 09:20:00,69.0,66.3,29.89,West,267,0.0,3.6,91,0.00,,---,0.00,VWS V14.01,2013-08-06 14:20:00,
2013-08-06 09:25:00,69.3,66.6,29.89,South,173,7.2,7.2,91,0.00,,---,0.00,VWS V14.01,2013-08-06 14:25:00,
2013-08-06 09:30:00,69.4,66.7,29.89,South,174,3.6,7.2,91,0.00,,---,0.00,VWS V14.01,2013-08-06 14:30:00,
2013-08-06 09:35:00,69.6,66.9,29.89,SSW,203,0.0,5.4,91,0.00,,---,0.00,VWS V14.01,2013-08-06 14:35:00,
2013-08-06 09:40:00,69.8,66.8,29.89,SSW,205,3.6,7.2,90,0.00,,---,0.00,VWS V14.01,2013-08-06 14:40:00,
2013-08-06 09:45:00,70.1,67.1,29.89,South,178,0.0,7.2,90,0.00,,---,0.00,VWS V14.01,2013-08-06 14:45:00,
2013-08-06 09:50:00,70.6,67.6,29.89,SSW,192,0.0,3.6,90,0.00,,---,0.00,VWS V14.01,2013-08-06 14:50:00,
2013-08-06 09:55:00,71.0,68.0,29.89,SSW,210,0.0,5.4,90,0.00,,---,0.00,VWS V14.01,2013-08-06 14:55:00,
2013-08-06 10:00:00,71.3,67.7,29.89,SW,236,0.0,5.4,88,0.00,,---,0.00,VWS V14.01,2013-08-06 15:00:00,
2013-08-06 10:05:00,71.6,67.7,29.89,SSW,195,0.0,3.6,87,0.00,,---,0.00,VWS V14.01,2013-08-06 15:05:00,
2013-08-06 10:10:00,72.0,68.1,29.89,SW,230,1.8,5.4,87,0.00,,---,0.00,VWS V14.01,2013-08-06 15:10:00,
2013-08-06 10:15:00,72.5,68.2,29.89,SW,215,0.0,9.0,86,0.00,,---,0.00,VWS V14.01,2013-08-06 15:15:00,
2013-08-06 10:20:00,73.2,68.6,29.89,SSW,195,0.0,7.2,86,0.00,,---,0.00,VWS V14.01,2013-08-06 15:20:00,
2013-08-06 10:25:00,73.6,68.7,29.89,West,267,0.0,3.6,85,0.00,,---,0.00,VWS V14.01,2013-08-06 15:25:00,
2013-08-06 10:30:00,74.0,69.1,29.89,West,274,1.8,3.6,85,0.00,,---,0.00,VWS V14.01,2013-08-06 15:30:00,
2013-08-06 10:35:00,74.1,68.9,29.88,West,274,5.4,7.2,84,0.00,,---,0.00,VWS V14.01,2013-08-06 15:35:00,
2013-08-06 10:40:00,74.3,69.1,29.88,SSW,208,3.6,9.0,84,0.00,,---,0.00,VWS V14.01,2013-08-06 15:40:00,
2013-08-06 10:45:00,74.7,69.4,29.88,West,260,1.8,7.2,84,0.00,,---,0.00,VWS V14.01,2013-08-06 15:45:00,
2013-08-06 10:50:00,75.1,69.2,29.88,West,267,0.0,3.6,82,0.00,,---,0.00,VWS V14.01,2013-08-06 15:50:00,
2013-08-06 10:55:00,75.3,69.4,29.88,SW,224,0.0,9.0,82,0.00,,---,0.00,VWS V14.01,2013-08-06 15:55:00,
2013-08-06 11:00:00,75.7,70.1,29.88,SW,215,0.0,9.0,83,0.00,,---,0.00,VWS V14.01,2013-08-06 16:00:00,
2013-08-06 11:05:00,76.0,69.7,29.88,West,271,0.0,3.6,81,0.00,,---,0.00,VWS V14.01,2013-08-06 16:05:00,
2013-08-06 11:10:00,76.3,70.0,29.88,WSW,250,1.8,3.6,81,0.00,,---,0.00,VWS V14.01,2013-08-06 16:10:00,
2013-08-06 11:15:00,76.6,70.0,29.88,West,263,0.0,5.4,80,0.00,,---,0.00,VWS V14.01,2013-08-06 16:15:00,
2013-08-06 11:20:00,77.1,70.8,29.87,NW,305,3.6,7.2,81,0.00,,---,0.00,VWS V14.01,2013-08-06 16:20:00,
2013-08-06 11:25:00,77.8,71.1,29.87,West,269,0.0,3.6,80,0.00,,---,0.00,VWS V14.01,2013-08-06 16:25:00,
2013-08-06 11:30:00,78.4,70.7,29.88,West,263,0.0,9.0,77,0.00,,---,0.00,VWS V14.01,2013-08-06 16:30:00,
2013-08-06 11:35:00,78.6,71.2,29.88,SW,217,0.0,7.2,78,0.00,,---,0.00,VWS V14.01,2013-08-06 16:35:00,
2013-08-06 11:40:00,79.0,71.2,29.88,West,267,0.0,1.8,77,0.00,,---,0.00,VWS V14.01,2013-08-06 16:40:00,
2013-08-06 11:45:00,79.6,71.8,29.88,West,276,1.8,5.4,77,0.00,,---,0.00,VWS V14.01,2013-08-06 16:45:00,
2013-08-06 11:50:00,80.2,71.7,29.88,South,172,1.8,3.6,75,0.00,,---,0.00,VWS V14.01,2013-08-06 16:50:00,
2013-08-06 11:55:00,80.7,71.8,29.88,West,278,1.8,1.8,74,0.00,,---,0.00,VWS V14.01,2013-08-06 16:55:00,
2013-08-06 12:00:00,80.1,70.9,29.88,West,264,1.8,5.4,73,0.00,,---,0.00,VWS V14.01,2013-08-06 17:00:00,
2013-08-06 12:05:00,79.8,70.9,29.88,WSW,242,0.0,5.4,74,0.00,,---,0.00,VWS V14.01,2013-08-06 17:05:00,
2013-08-06 12:10:00,80.4,71.5,29.87,WNW,303,0.0,3.6,74,0.00,,---,0.00,VWS V14.01,2013-08-06 17:10:00,
2013-08-06 12:15:00,80.9,71.2,29.87,SSW,192,5.4,5.4,73,0.00,,---,0.00,VWS V14.01,2013-08-06 17:15:00,
2013-08-06 12:20:00,80.9,70.9,29.87,South,180,5.4,10.8,72,0.00,,---,0.00,VWS V14.01,2013-08-06 17:20:00,
2013-08-06 12:25:00,81.6,71.2,29.86,South,176,3.6,10.8,71,0.00,,---,0.00,VWS V14.01,2013-08-06 17:25:00,
2013-08-06 12:27:00,81.7,71.2,29.86,West,269,1.8,5.4,71,0.00,,---,0.00,VWS V14.01,2013-08-06 17:27:00,
2013-08-06 12:32:00,81.8,71.7,29.86,SSW,201,3.6,3.6,72,0.00,,---,0.00,VWS V14.01,2013-08-06 17:32:00,
2013-08-06 12:37:00,82.0,71.5,29.86,West,271,3.6,5.4,71,0.00,,---,0.00,VWS V14.01,2013-08-06 17:37:00,
2013-08-06 12:42:00,81.6,71.5,29.86,West,276,0.0,1.8,72,0.00,,---,0.00,VWS V14.01,2013-08-06 17:42:00,
2013-08-06 12:47:00,81.8,71.0,29.86,SSW,200,7.2,9.0,70,0.00,,---,0.00,VWS V14.01,2013-08-06 17:47:00,
2013-08-06 12:52:00,82.0,71.5,29.85,SW,224,3.6,7.2,71,0.00,,---,0.00,VWS V14.01,2013-08-06 17:52:00,
2013-08-06 12:57:00,82.6,71.7,29.85,SE,126,3.6,9.0,70,0.00,,---,0.00,VWS V14.01,2013-08-06 17:57:00,
2013-08-06 13:02:00,83.2,71.5,29.85,West,275,1.8,3.6,68,0.00,,---,0.00,VWS V14.01,2013-08-06 18:02:00,
2013-08-06 13:07:00,83.8,72.5,29.85,SE,128,3.6,5.4,69,0.00,,---,0.00,VWS V14.01,2013-08-06 18:07:00,
2013-08-06 13:12:00,84.6,72.8,29.84,South,187,3.6,5.4,68,0.00,,---,0.00,VWS V14.01,2013-08-06 18:12:00,
2013-08-06 13:17:00,84.8,71.8,29.84,SSW,198,5.4,9.0,65,0.00,,---,0.00,VWS V14.01,2013-08-06 18:17:00,
2013-08-06 13:22:00,84.9,71.9,29.84,SSE,165,9.0,9.0,65,0.00,,---,0.00,VWS V14.01,2013-08-06 18:22:00,
2013-08-06 13:27:00,85.1,72.1,29.84,NW,307,1.8,5.4,65,0.00,,---,0.00,VWS V14.01,2013-08-06 18:27:00,
2013-08-06 13:32:00,85.1,72.1,29.83,SSE,165,3.6,5.4,65,0.00,,---,0.00,VWS V14.01,2013-08-06 18:32:00,
2013-08-06 13:37:00,85.1,72.5,29.83,South,190,1.8,1.8,66,0.00,,---,0.00,VWS V14.01,2013-08-06 18:37:00,
2013-08-06 13:42:00,85.0,72.0,29.83,WNW,290,3.6,3.6,65,0.00,,---,0.00,VWS V14.01,2013-08-06 18:42:00,
2013-08-06 13:47:00,84.8,71.4,29.83,SW,226,0.0,7.2,64,0.00,,---,0.00,VWS V14.01,2013-08-06 18:47:00,
2013-08-06 13:52:00,84.8,71.8,29.82,SSE,167,1.8,3.6,65,0.00,,---,0.00,VWS V14.01,2013-08-06 18:52:00,
2013-08-06 13:57:00,85.0,70.7,29.82,West,262,0.0,3.6,62,0.00,,---,0.00,VWS V14.01,2013-08-06 18:57:00,
2013-08-06 14:02:00,85.0,71.1,29.82,SSW,210,3.6,7.2,63,0.00,,---,0.00,VWS V14.01,2013-08-06 19:02:00,
2013-08-06 14:07:00,84.5,71.1,29.82,SE,139,1.8,7.2,64,0.00,,---,0.00,VWS V14.01,2013-08-06 19:07:00,
2013-08-06 14:12:00,84.2,71.2,29.82,WSW,238,3.6,7.2,65,0.00,,---,0.00,VWS V14.01,2013-08-06 19:12:00,
2013-08-06 14:17:00,84.5,72.3,29.82,WSW,242,0.0,7.2,67,0.00,,---,0.00,VWS V14.01,2013-08-06 19:17:00,
2013-08-06 14:22:00,84.8,71.8,29.82,SW,232,3.6,5.4,65,0.00,,---,0.00,VWS V14.01,2013-08-06 19:22:00,
2013-08-06 14:27:00,84.8,71.8,29.83,SW,226,1.8,7.2,65,0.00,,---,0.00,VWS V14.01,2013-08-06 19:27:00,
2013-08-06 14:32:00,84.8,70.9,29.83,West,274,3.6,9.0,63,0.00,,---,0.00,VWS V14.01,2013-08-06 19:32:00,
2013-08-06 14:37:00,84.6,70.7,29.82,WSW,257,0.0,3.6,63,0.00,,---,0.00,VWS V14.01,2013-08-06 19:37:00,
2013-08-06 14:42:00,84.2,70.8,29.82,South,190,5.4,9.0,64,0.00,,---,0.00,VWS V14.01,2013-08-06 19:42:00,
2013-08-06 14:47:00,84.0,71.0,29.81,West,264,3.6,9.0,65,0.00,,---,0.00,VWS V14.01,2013-08-06 19:47:00,
2013-08-06 14:52:00,83.7,71.2,29.80,South,186,3.6,7.2,66,0.00,,---,0.00,VWS V14.01,2013-08-06 19:52:00,
2013-08-06 14:57:00,83.3,71.2,29.80,SSW,193,5.4,9.0,67,0.00,,---,0.00,VWS V14.01,2013-08-06 19:57:00,
2013-08-06 15:02:00,82.9,71.2,29.81,SSE,167,7.2,7.2,68,0.00,,---,0.00,VWS V14.01,2013-08-06 20:02:00,
2013-08-06 15:07:00,82.7,71.8,29.81,SSW,207,1.8,1.8,70,0.00,,---,0.00,VWS V14.01,2013-08-06 20:07:00,
2013-08-06 15:12:00,82.6,72.1,29.81,SW,221,1.8,1.8,71,0.00,,---,0.00,VWS V14.01,2013-08-06 20:12:00,
2013-08-06 15:17:00,82.4,71.5,29.81,SW,215,5.4,5.4,70,0.00,,---,0.00,VWS V14.01,2013-08-06 20:17:00,
2013-08-06 15:22:00,82.2,71.3,29.81,SSW,211,3.6,5.4,70,0.00,,---,0.00,VWS V14.01,2013-08-06 20:22:00,
2013-08-06 15:27:00,81.9,71.1,29.81,West,269,0.0,1.8,70,0.00,,---,0.00,VWS V14.01,2013-08-06 20:27:00,
2013-08-06 15:32:00,81.7,71.6,29.81,South,190,0.0,1.8,72,0.00,,---,0.00,VWS V14.01,2013-08-06 20:32:00,
2013-08-06 15:37:00,81.4,71.3,29.80,West,273,1.8,3.6,72,0.00,,---,0.00,VWS V14.01,2013-08-06 20:37:00,
2013-08-06 15:42:00,81.3,71.6,29.80,South,176,3.6,7.2,73,0.00,,---,0.00,VWS V14.01,2013-08-06 20:42:00,
2013-08-06 15:47:00,81.1,71.8,29.80,South,191,3.6,3.6,73,0.00,,---,0.00,VWS V14.01,2013-08-06 20:47:00,
2013-08-06 15:52:00,81.1,71.8,29.80,SSE,166,1.8,1.8,73,0.00,,---,0.00,VWS V14.01,2013-08-06 20:52:00,
2013-08-06 15:57:00,81.0,72.1,29.80,SSW,203,0.0,1.8,74,0.00,,---,0.00,VWS V14.01,2013-08-06 20:57:00,
2013-08-06 16:02:00,80.9,72.0,29.80,SSW,210,0.0,0.0,74,0.00,,---,0.00,VWS V14.01,2013-08-06 21:02:00,
2013-08-06 16:07:00,80.8,71.9,29.80,SW,215,0.0,3.6,74,0.00,,---,0.00,VWS V14.01,2013-08-06 21:07:00,
2013-08-06 16:12:00,80.7,72.2,29.80,South,181,1.8,1.8,75,0.00,,---,0.00,VWS V14.01,2013-08-06 21:12:00,
2013-08-06 16:17:00,80.6,72.1,29.81,West,268,0.0,3.6,75,0.00,,---,0.00,VWS V14.01,2013-08-06 21:17:00,
2013-08-06 16:22:00,80.5,72.3,29.81,West,274,0.0,1.8,76,0.00,,---,0.00,VWS V14.01,2013-08-06 21:22:00,
2013-08-06 16:27:00,80.4,72.2,29.82,West,274,0.0,0.0,76,0.00,,---,0.00,VWS V14.01,2013-08-06 21:27:00,
2013-08-06 16:32:00,80.4,72.2,29.81,SSW,213,0.0,0.0,76,0.00,,---,0.00,VWS V14.01,2013-08-06 21:32:00,
2013-08-06 16:37:00,80.5,72.3,29.81,SW,229,0.0,0.0,76,0.00,,---,0.00,VWS V14.01,2013-08-06 21:37:00,
2013-08-06 16:42:00,80.7,72.5,29.81,SW,229,0.0,0.0,76,0.00,,---,0.00,VWS V14.01,2013-08-06 21:42:00,
2013-08-06 16:47:00,81.0,72.5,29.82,SW,229,0.0,0.0,75,0.00,,---,0.00,VWS V14.01,2013-08-06 21:47:00,
2013-08-06 16:52:00,81.3,72.8,29.82,WSW,246,0.0,0.0,75,0.00,,---,0.00,VWS V14.01,2013-08-06 21:52:00,
2013-08-06 16:57:00,81.4,72.5,29.82,West,264,0.0,0.0,74,0.00,,---,0.00,VWS V14.01,2013-08-06 21:57:00,
2013-08-06 17:02:00,81.4,72.5,29.82,SSW,195,1.8,1.8,74,0.00,,---,0.00,VWS V14.01,2013-08-06 22:02:00,
2013-08-06 17:07:00,81.5,72.6,29.82,SSE,166,0.0,0.0,74,0.00,,---,0.00,VWS V14.01,2013-08-06 22:07:00,
2013-08-06 17:12:00,81.5,72.6,29.82,South,172,0.0,0.0,74,0.00,,---,0.00,VWS V14.01,2013-08-06 22:12:00,
2013-08-06 17:17:00,81.5,72.9,29.82,South,174,0.0,0.0,75,0.00,,---,0.00,VWS V14.01,2013-08-06 22:17:00,
2013-08-06 17:22:00,81.4,72.8,29.83,South,173,0.0,0.0,75,0.00,,---,0.00,VWS V14.01,2013-08-06 22:22:00,
2013-08-06 17:27:00,81.4,72.5,29.82,WNW,302,0.0,0.0,74,0.00,,---,0.00,VWS V14.01,2013-08-06 22:27:00,
2013-08-06 17:32:00,81.4,72.8,29.82,WNW,302,0.0,0.0,75,0.00,,---,0.00,VWS V14.01,2013-08-06 22:32:00,
2013-08-06 17:37:00,81.4,73.2,29.82,WNW,302,0.0,0.0,76,0.00,,---,0.00,VWS V14.01,2013-08-06 22:37:00,
2013-08-06 17:42:00,81.6,73.0,29.83,NNE,13,0.0,0.0,75,0.00,,---,0.00,VWS V14.01,2013-08-06 22:42:00,
2013-08-06 17:47:00,81.7,73.1,29.82,ESE,111,0.0,0.0,75,0.00,,---,0.00,VWS V14.01,2013-08-06 22:47:00,
2013-08-06 17:52:00,81.9,72.2,29.82,South,188,0.0,3.6,73,0.00,,---,0.00,VWS V14.01,2013-08-06 22:52:00,
2013-08-06 17:57:00,82.0,72.7,29.82,SSE,168,0.0,3.6,73,0.00,,---,0.00,VWS V14.01,2013-08-06 22:57:00,
2013-08-06 18:02:00,82.2,72.9,29.82,SSE,167,0.0,0.0,73,0.00,,---,0.00,VWS V14.01,2013-08-06 23:02:00,
2013-08-06 18:07:00,82.3,73.0,29.82,South,191,0.0,0.0,73,0.00,,---,0.00,VWS V14.01,2013-08-06 23:07:00,
2013-08-06 18:12:00,82.2,72.9,29.82,WSW,252,0.0,0.0,73,0.00,,---,0.00,VWS V14.01,2013-08-06 23:12:00,
2013-08-06 18:17:00,82.2,73.2,29.82,SW,225,0.0,0.0,74,0.00,,---,0.00,VWS V14.01,2013-08-06 23:17:00,
2013-08-06 18:22:00,82.0,73.1,29.82,NW,319,0.0,0.0,74,0.00,,---,0.00,VWS V14.01,2013-08-06 23:22:00,
2013-08-06 18:27:00,81.8,72.9,29.82,SW,225,0.0,1.8,74,0.00,,---,0.00,VWS V14.01,2013-08-06 23:27:00,
2013-08-06 18:32:00,81.8,72.9,29.82,SSW,206,0.0,1.8,74,0.00,,---,0.00,VWS V14.01,2013-08-06 23:32:00,
2013-08-06 18:37:00,81.8,72.5,29.82,SSW,197,1.8,5.4,73,0.00,,---,0.00,VWS V14.01,2013-08-06 23:37:00,
2013-08-06 18:42:00,81.7,72.4,29.82,SSW,192,1.8,1.8,73,0.00,,---,0.00,VWS V14.01,2013-08-06 23:42:00,
2013-08-06 18:47:00,81.7,72.8,29.82,SSW,205,1.8,3.6,74,0.00,,---,0.00,VWS V14.01,2013-08-06 23:47:00,
2013-08-06 18:52:00,81.5,72.9,29.82,SSE,167,0.0,0.0,75,0.00,,---,0.00,VWS V14.01,2013-08-06 23:52:00,
2013-08-06 18:57:00,81.4,72.8,29.82,SE,145,0.0,0.0,75,0.00,,---,0.00,VWS V14.01,2013-08-06 23:57:00,
2013-08-06 19:02:00,81.1,72.9,29.82,SSE,158,0.0,0.0,76,0.00,,---,0.00,VWS V14.01,2013-08-07 00:02:00,
2013-08-06 19:07:00,80.9,72.7,29.82,SSE,155,0.0,0.0,76,0.00,,---,0.00,VWS V14.01,2013-08-07 00:07:00,
2013-08-06 19:12:00,80.6,72.8,29.82,SSE,155,0.0,0.0,77,0.00,,---,0.00,VWS V14.01,2013-08-07 00:12:00,
2013-08-06 19:17:00,80.3,72.5,29.82,SSE,155,0.0,0.0,77,0.00,,---,0.00,VWS V14.01,2013-08-07 00:17:00,
2013-08-06 19:22:00,80.1,72.7,29.82,SSE,155,0.0,0.0,78,0.00,,---,0.00,VWS V14.01,2013-08-07 00:22:00,
2013-08-06 19:27:00,79.8,72.7,29.82,SSE,155,0.0,0.0,79,0.00,,---,0.00,VWS V14.01,2013-08-07 00:27:00,
2013-08-06 19:32:00,79.5,72.8,29.81,SSE,155,0.0,0.0,80,0.00,,---,0.00,VWS V14.01,2013-08-07 00:32:00,
2013-08-06 19:37:00,79.3,72.6,29.81,SSE,155,0.0,0.0,80,0.00,,---,0.00,VWS V14.01,2013-08-07 00:37:00,
2013-08-06 19:42:00,79.2,72.8,29.81,SSE,155,0.0,0.0,81,0.00,,---,0.00,VWS V14.01,2013-08-07 00:42:00,
2013-08-06 19:47:00,79.0,72.6,29.81,SSE,155,0.0,0.0,81,0.00,,---,0.00,VWS V14.01,2013-08-07 00:47:00,
2013-08-06 19:52:00,78.9,72.6,29.81,SSE,155,0.0,0.0,81,0.00,,---,0.00,VWS V14.01,2013-08-07 00:52:00,
2013-08-06 19:57:00,78.7,72.3,29.81,SSE,155,0.0,0.0,81,0.00,,---,0.00,VWS V14.01,2013-08-07 00:57:00,
2013-08-06 20:02:00,78.5,72.5,29.82,SSE,155,0.0,0.0,82,0.00,,---,0.00,VWS V14.01,2013-08-07 01:02:00,
2013-08-06 20:07:00,78.3,72.3,29.82,SSE,155,0.0,0.0,82,0.00,,---,0.00,VWS V14.01,2013-08-07 01:07:00,
2013-08-06 20:12:00,78.0,72.3,29.82,SSE,155,0.0,0.0,83,0.00,,---,0.00,VWS V14.01,2013-08-07 01:12:00,
2013-08-06 20:16:00,77.7,72.1,29.82,SSE,155,0.0,0.0,83,0.00,,---,0.00,VWS V14.01,2013-08-07 01:16:00,
2013-08-06 20:22:00,77.5,71.8,29.81,SSE,155,0.0,0.0,83,0.00,,---,0.00,VWS V14.01,2013-08-07 01:22:00,
2013-08-06 20:26:00,77.1,71.5,29.81,SSE,155,0.0,0.0,83,0.00,,---,0.00,VWS V14.01,2013-08-07 01:26:00,
2013-08-06 20:31:00,76.9,71.6,29.81,SSE,156,0.0,0.0,84,0.00,,---,0.00,VWS V14.01,2013-08-07 01:31:00,
2013-08-06 20:37:00,76.6,71.6,29.81,SSE,156,0.0,0.0,85,0.00,,---,0.00,VWS V14.01,2013-08-07 01:37:00,
2013-08-06 20:41:00,76.4,71.4,29.81,SSE,156,0.0,0.0,85,0.00,,---,0.00,VWS V14.01,2013-08-07 01:41:00,
2013-08-06 20:46:00,76.2,71.2,29.81,SSE,156,0.0,0.0,85,0.00,,---,0.00,VWS V14.01,2013-08-07 01:46:00,
2013-08-06 20:51:00,76.0,71.4,29.81,SSE,156,0.0,0.0,86,0.00,,---,0.00,VWS V14.01,2013-08-07 01:51:00,
2013-08-06 20:56:00,75.9,71.3,29.82,SSE,156,0.0,0.0,86,0.00,,---,0.00,VWS V14.01,2013-08-07 01:56:00,
2013-08-06 21:01:00,75.8,71.2,29.82,SSE,156,0.0,0.0,86,0.00,,---,0.00,VWS V14.01,2013-08-07 02:01:00,
2013-08-06 21:06:00,75.7,71.4,29.82,SSE,156,0.0,0.0,86,0.00,,---,0.00,VWS V14.01,2013-08-07 02:06:00,
2013-08-06 21:11:00,75.5,71.2,29.82,SSE,156,0.0,0.0,86,0.00,,---,0.00,VWS V14.01,2013-08-07 02:11:00,
2013-08-06 21:16:00,75.3,71.0,29.82,SSE,156,0.0,0.0,86,0.00,,---,0.00,VWS V14.01,2013-08-07 02:16:00,
2013-08-06 21:21:00,75.2,70.9,29.82,SSE,156,0.0,0.0,86,0.00,,---,0.00,VWS V14.01,2013-08-07 02:21:00,
2013-08-06 21:26:00,75.4,71.4,29.83,SSE,165,0.0,0.0,87,0.00,,---,0.00,VWS V14.01,2013-08-07 02:26:00,
2013-08-06 21:31:00,75.4,71.4,29.82,SSW,200,0.0,0.0,87,0.00,,---,0.00,VWS V14.01,2013-08-07 02:31:00,
2013-08-06 21:36:00,75.6,71.3,29.83,SSW,208,0.0,0.0,86,0.00,,---,0.00,VWS V14.01,2013-08-07 02:36:00,
2013-08-06 21:41:00,75.9,71.3,29.83,SSW,212,1.8,3.6,86,0.00,,---,0.00,VWS V14.01,2013-08-07 02:41:00,
2013-08-06 21:46:00,76.1,71.5,29.83,SSW,201,1.8,1.8,86,0.00,,---,0.00,VWS V14.01,2013-08-07 02:46:00,
2013-08-06 21:51:00,76.3,71.3,29.83,SSW,208,1.8,1.8,85,0.00,,---,0.00,VWS V14.01,2013-08-07 02:51:00,
2013-08-06 21:56:00,76.4,71.4,29.83,South,188,0.0,3.6,85,0.00,,---,0.00,VWS V14.01,2013-08-07 02:56:00,
2013-08-06 22:01:00,76.5,71.2,29.83,SSW,205,5.4,7.2,84,0.00,,---,0.00,VWS V14.01,2013-08-07 03:01:00,
2013-08-06 22:06:00,76.5,71.2,29.83,SSW,195,3.6,3.6,84,0.00,,---,0.00,VWS V14.01,2013-08-07 03:06:00,
2013-08-06 22:11:00,76.5,71.2,29.83,SSW,205,0.0,3.6,84,0.00,,---,0.00,VWS V14.01,2013-08-07 03:11:00,
2013-08-06 22:16:00,76.5,71.2,29.83,SW,215,1.8,1.8,84,0.00,,---,0.00,VWS V14.01,2013-08-07 03:16:00,
2013-08-06 22:21:00,76.4,71.1,29.83,SSW,201,1.8,1.8,84,0.00,,---,0.00,VWS V14.01,2013-08-07 03:21:00,
2013-08-06 22:26:00,76.3,71.0,29.83,SSW,195,0.0,0.0,84,0.00,,---,0.00,VWS V14.01,2013-08-07 03:26:00,
2013-08-06 22:31:00,76.2,70.9,29.83,SSW,208,1.8,3.6,84,0.00,,---,0.00,VWS V14.01,2013-08-07 03:31:00,
2013-08-06 22:36:00,76.1,70.8,29.83,SW,215,1.8,1.8,84,0.00,,---,0.00,VWS V14.01,2013-08-07 03:36:00,
2013-08-06 22:41:00,76.1,70.8,29.82,SSW,208,1.8,3.6,84,0.00,,---,0.00,VWS V14.01,2013-08-07 03:41:00,
2013-08-06 22:46:00,76.0,70.7,29.82,SSW,208,1.8,1.8,84,0.00,,---,0.00,VWS V14.01,2013-08-07 03:46:00,
2013-08-06 22:51:00,75.9,70.6,29.82,SSE,165,3.6,7.2,84,0.00,,---,0.00,VWS V14.01,2013-08-07 03:51:00,
2013-08-06 22:56:00,75.8,70.5,29.82,South,177,3.6,5.4,84,0.00,,---,0.00,VWS V14.01,2013-08-07 03:56:00,
2013-08-06 23:01:00,75.8,70.8,29.82,SW,219,1.8,1.8,85,0.00,,---,0.00,VWS V14.01,2013-08-07 04:01:00,
2013-08-06 23:06:00,75.7,70.8,29.82,SW,221,3.6,3.6,85,0.00,,---,0.00,VWS V14.01,2013-08-07 04:06:00,
2013-08-06 23:11:00,75.6,70.7,29.82,South,183,1.8,7.2,85,0.00,,---,0.00,VWS V14.01,2013-08-07 04:11:00,
2013-08-06 23:16:00,75.6,70.7,29.82,SSW,203,3.6,5.4,85,0.00,,---,0.00,VWS V14.01,2013-08-07 04:16:00,
2013-08-06 23:21:00,75.5,70.6,29.81,South,170,1.8,3.6,85,0.00,,---,0.00,VWS V14.01,2013-08-07 04:21:00,
2013-08-06 23:26:00,75.4,70.4,29.81,SW,215,1.8,3.6,85,0.00,,---,0.00,VWS V14.01,2013-08-07 04:26:00,
2013-08-06 23:31:00,75.3,70.7,29.82,SW,218,0.0,3.6,86,0.00,,---,0.00,VWS V14.01,2013-08-07 04:31:00,
2013-08-06 23:36:00,75.2,70.6,29.82,SSW,194,0.0,0.0,86,0.00,,---,0.00,VWS V14.01,2013-08-07 04:36:00,
2013-08-06 23:41:00,75.2,70.6,29.82,SW,232,0.0,0.0,86,0.00,,---,0.00,VWS V14.01,2013-08-07 04:41:00,
2013-08-06 23:46:00,75.2,70.6,29.83,SSW,206,3.6,3.6,86,0.00,,---,0.00,VWS V14.01,2013-08-07 04:46:00,
2013-08-06 23:51:00,75.1,70.5,29.83,SSW,200,0.0,1.8,86,0.00,,---,0.00,VWS V14.01,2013-08-07 04:51:00,
2013-08-06 23:56:00,75.1,70.5,29.82,SSW,198,0.0,1.8,86,0.00,,---,0.00,VWS V14.01,2013-08-07 04:56:00,